sensor_id;sensor_type;location;lat;lon;timestamp;P1;durP1;ratioP1;P2;durP2;ratioP2
36205;SDS011;22242;48.796;9.930;2023-05-07T00:01:44;3.85;;;1.55;;
36205;SDS011;22242;48.796;9.930;2023-05-07T00:04:11;1.67;;;1.58;;
36205;SDS011;22242;48.796;9.930;2023-05-07T00:06:39;3.00;;;1.55;;
36205;SDS011;22242;48.796;9.930;2023-05-07T00:09:06;1.63;;;1.52;;
36205;SDS011;22242;48.796;9.930;2023-05-07T00:11:33;2.08;;;1.58;;
36205;SDS011;22242;48.796;9.930;2023-05-07T00:14:00;1.50;;;1.40;;
36205;SDS011;22242;48.796;9.930;2023-05-07T00:16:27;4.00;;;1.65;;
36205;SDS011;22242;48.796;9.930;2023-05-07T00:18:56;3.05;;;1.52;;
36205;SDS011;22242;48.796;9.930;2023-05-07T00:21:23;2.60;;;1.67;;
36205;SDS011;22242;48.796;9.930;2023-05-07T00:23:51;2.03;;;1.60;;
36205;SDS011;22242;48.796;9.930;2023-05-07T00:26:19;2.65;;;1.52;;
36205;SDS011;22242;48.796;9.930;2023-05-07T00:28:48;2.35;;;1.73;;
36205;SDS011;22242;48.796;9.930;2023-05-07T00:31:15;2.10;;;1.58;;
36205;SDS011;22242;48.796;9.930;2023-05-07T00:33:42;1.70;;;1.60;;
36205;SDS011;22242;48.796;9.930;2023-05-07T00:36:11;4.15;;;1.55;;
36205;SDS011;22242;48.796;9.930;2023-05-07T00:38:38;2.10;;;1.70;;
36205;SDS011;22242;48.796;9.930;2023-05-07T00:41:05;3.15;;;1.63;;
36205;SDS011;22242;48.796;9.930;2023-05-07T00:43:32;2.92;;;1.70;;
36205;SDS011;22242;48.796;9.930;2023-05-07T00:45:59;2.55;;;1.52;;
36205;SDS011;22242;48.796;9.930;2023-05-07T00:48:27;3.00;;;1.75;;
36205;SDS011;22242;48.796;9.930;2023-05-07T00:50:54;2.22;;;1.67;;
36205;SDS011;22242;48.796;9.930;2023-05-07T00:53:22;4.85;;;1.73;;
36205;SDS011;22242;48.796;9.930;2023-05-07T00:55:49;2.38;;;1.63;;
36205;SDS011;22242;48.796;9.930;2023-05-07T00:58:17;5.25;;;1.80;;
36205;SDS011;22242;48.796;9.930;2023-05-07T01:00:44;2.95;;;1.98;;
36205;SDS011;22242;48.796;9.930;2023-05-07T01:03:11;2.80;;;1.52;;
36205;SDS011;22242;48.796;9.930;2023-05-07T01:05:38;2.50;;;1.73;;
36205;SDS011;22242;48.796;9.930;2023-05-07T01:08:06;2.30;;;1.58;;
36205;SDS011;22242;48.796;9.930;2023-05-07T01:10:35;2.30;;;1.90;;
36205;SDS011;22242;48.796;9.930;2023-05-07T01:13:02;4.03;;;1.98;;
36205;SDS011;22242;48.796;9.930;2023-05-07T01:15:30;3.28;;;2.00;;
36205;SDS011;22242;48.796;9.930;2023-05-07T01:17:57;1.98;;;1.77;;
36205;SDS011;22242;48.796;9.930;2023-05-07T01:20:30;3.10;;;1.80;;
36205;SDS011;22242;48.796;9.930;2023-05-07T01:22:59;2.47;;;1.58;;
36205;SDS011;22242;48.796;9.930;2023-05-07T01:25:27;2.10;;;1.90;;
36205;SDS011;22242;48.796;9.930;2023-05-07T01:27:58;4.22;;;1.83;;
36205;SDS011;22242;48.796;9.930;2023-05-07T01:30:29;4.95;;;1.90;;
36205;SDS011;22242;48.796;9.930;2023-05-07T01:32:58;8.27;;;1.65;;
36205;SDS011;22242;48.796;9.930;2023-05-07T01:35:30;2.05;;;1.95;;
36205;SDS011;22242;48.796;9.930;2023-05-07T01:38:03;2.13;;;1.70;;
36205;SDS011;22242;48.796;9.930;2023-05-07T01:40:31;3.78;;;1.83;;
36205;SDS011;22242;48.796;9.930;2023-05-07T01:42:59;1.98;;;1.52;;
36205;SDS011;22242;48.796;9.930;2023-05-07T01:45:27;2.50;;;2.05;;
36205;SDS011;22242;48.796;9.930;2023-05-07T01:47:56;4.20;;;2.05;;
36205;SDS011;22242;48.796;9.930;2023-05-07T01:50:25;4.57;;;1.83;;
36205;SDS011;22242;48.796;9.930;2023-05-07T01:52:52;5.10;;;1.80;;
36205;SDS011;22242;48.796;9.930;2023-05-07T01:55:20;3.58;;;2.08;;
36205;SDS011;22242;48.796;9.930;2023-05-07T01:57:48;3.03;;;2.30;;
36205;SDS011;22242;48.796;9.930;2023-05-07T02:00:15;1.95;;;1.75;;
36205;SDS011;22242;48.796;9.930;2023-05-07T02:02:43;6.05;;;2.08;;
36205;SDS011;22242;48.796;9.930;2023-05-07T02:05:22;3.28;;;1.95;;
36205;SDS011;22242;48.796;9.930;2023-05-07T02:08:05;2.17;;;1.95;;
36205;SDS011;22242;48.796;9.930;2023-05-07T02:10:33;2.67;;;1.80;;
36205;SDS011;22242;48.796;9.930;2023-05-07T02:13:01;3.83;;;2.20;;
36205;SDS011;22242;48.796;9.930;2023-05-07T02:15:28;3.05;;;2.20;;
36205;SDS011;22242;48.796;9.930;2023-05-07T02:18:03;4.43;;;2.25;;
36205;SDS011;22242;48.796;9.930;2023-05-07T02:20:31;4.85;;;2.42;;
36205;SDS011;22242;48.796;9.930;2023-05-07T02:22:59;2.88;;;2.17;;
36205;SDS011;22242;48.796;9.930;2023-05-07T02:25:28;2.67;;;2.40;;
36205;SDS011;22242;48.796;9.930;2023-05-07T02:27:56;3.60;;;2.60;;
36205;SDS011;22242;48.796;9.930;2023-05-07T02:30:35;2.50;;;2.08;;
36205;SDS011;22242;48.796;9.930;2023-05-07T02:33:03;2.95;;;2.28;;
36205;SDS011;22242;48.796;9.930;2023-05-07T02:35:30;3.25;;;2.20;;
36205;SDS011;22242;48.796;9.930;2023-05-07T02:37:57;2.08;;;1.88;;
36205;SDS011;22242;48.796;9.930;2023-05-07T02:40:25;2.05;;;1.50;;
36205;SDS011;22242;48.796;9.930;2023-05-07T02:42:52;1.77;;;1.65;;
36205;SDS011;22242;48.796;9.930;2023-05-07T02:45:20;1.67;;;1.58;;
36205;SDS011;22242;48.796;9.930;2023-05-07T02:47:49;2.63;;;1.90;;
36205;SDS011;22242;48.796;9.930;2023-05-07T02:50:16;2.55;;;1.60;;
36205;SDS011;22242;48.796;9.930;2023-05-07T02:52:43;2.38;;;1.92;;
36205;SDS011;22242;48.796;9.930;2023-05-07T02:55:10;3.38;;;1.92;;
36205;SDS011;22242;48.796;9.930;2023-05-07T02:57:37;3.05;;;2.10;;
36205;SDS011;22242;48.796;9.930;2023-05-07T03:00:12;3.85;;;1.80;;
36205;SDS011;22242;48.796;9.930;2023-05-07T03:02:48;2.03;;;1.83;;
36205;SDS011;22242;48.796;9.930;2023-05-07T03:05:15;2.80;;;2.05;;
36205;SDS011;22242;48.796;9.930;2023-05-07T03:07:42;3.95;;;2.03;;
36205;SDS011;22242;48.796;9.930;2023-05-07T03:10:12;2.72;;;1.98;;
36205;SDS011;22242;48.796;9.930;2023-05-07T03:12:39;3.08;;;1.85;;
36205;SDS011;22242;48.796;9.930;2023-05-07T03:15:08;3.33;;;2.10;;
36205;SDS011;22242;48.796;9.930;2023-05-07T03:17:36;3.63;;;1.90;;
36205;SDS011;22242;48.796;9.930;2023-05-07T03:20:05;1.98;;;1.88;;
36205;SDS011;22242;48.796;9.930;2023-05-07T03:22:34;4.80;;;2.00;;
36205;SDS011;22242;48.796;9.930;2023-05-07T03:25:02;2.65;;;1.65;;
36205;SDS011;22242;48.796;9.930;2023-05-07T03:27:30;3.65;;;1.90;;
36205;SDS011;22242;48.796;9.930;2023-05-07T03:29:57;4.88;;;1.90;;
36205;SDS011;22242;48.796;9.930;2023-05-07T03:32:24;1.75;;;1.65;;
36205;SDS011;22242;48.796;9.930;2023-05-07T03:34:51;1.80;;;1.70;;
36205;SDS011;22242;48.796;9.930;2023-05-07T03:37:20;3.88;;;2.10;;
36205;SDS011;22242;48.796;9.930;2023-05-07T03:39:47;3.28;;;2.05;;
36205;SDS011;22242;48.796;9.930;2023-05-07T03:42:14;2.33;;;2.00;;
36205;SDS011;22242;48.796;9.930;2023-05-07T03:44:41;3.25;;;1.88;;
36205;SDS011;22242;48.796;9.930;2023-05-07T03:47:09;2.67;;;1.90;;
36205;SDS011;22242;48.796;9.930;2023-05-07T03:49:36;4.63;;;1.83;;
36205;SDS011;22242;48.796;9.930;2023-05-07T03:52:04;2.97;;;2.17;;
36205;SDS011;22242;48.796;9.930;2023-05-07T03:54:33;3.28;;;1.95;;
36205;SDS011;22242;48.796;9.930;2023-05-07T03:57:00;2.20;;;2.00;;
36205;SDS011;22242;48.796;9.930;2023-05-07T03:59:27;1.92;;;1.83;;
36205;SDS011;22242;48.796;9.930;2023-05-07T04:01:55;3.00;;;2.03;;
36205;SDS011;22242;48.796;9.930;2023-05-07T04:04:23;1.90;;;1.80;;
36205;SDS011;22242;48.796;9.930;2023-05-07T04:06:50;2.30;;;1.80;;
36205;SDS011;22242;48.796;9.930;2023-05-07T04:09:18;1.92;;;1.83;;
36205;SDS011;22242;48.796;9.930;2023-05-07T04:11:48;2.33;;;1.90;;
36205;SDS011;22242;48.796;9.930;2023-05-07T04:14:15;2.05;;;1.85;;
36205;SDS011;22242;48.796;9.930;2023-05-07T04:16:42;3.25;;;1.80;;
36205;SDS011;22242;48.796;9.930;2023-05-07T04:19:09;3.47;;;2.00;;
36205;SDS011;22242;48.796;9.930;2023-05-07T04:21:37;3.28;;;1.85;;
36205;SDS011;22242;48.796;9.930;2023-05-07T04:24:05;4.13;;;2.08;;
36205;SDS011;22242;48.796;9.930;2023-05-07T04:26:33;2.97;;;1.58;;
36205;SDS011;22242;48.796;9.930;2023-05-07T04:29:01;2.13;;;1.90;;
36205;SDS011;22242;48.796;9.930;2023-05-07T04:31:32;3.38;;;1.67;;
36205;SDS011;22242;48.796;9.930;2023-05-07T04:33:59;2.38;;;2.05;;
36205;SDS011;22242;48.796;9.930;2023-05-07T04:36:27;5.03;;;1.80;;
36205;SDS011;22242;48.796;9.930;2023-05-07T04:38:59;1.80;;;1.70;;
36205;SDS011;22242;48.796;9.930;2023-05-07T04:41:26;1.80;;;1.70;;
36205;SDS011;22242;48.796;9.930;2023-05-07T04:43:53;4.35;;;1.98;;
36205;SDS011;22242;48.796;9.930;2023-05-07T04:46:24;2.40;;;2.05;;
36205;SDS011;22242;48.796;9.930;2023-05-07T04:48:55;1.90;;;1.73;;
36205;SDS011;22242;48.796;9.930;2023-05-07T04:51:22;3.42;;;1.70;;
36205;SDS011;22242;48.796;9.930;2023-05-07T04:53:49;3.50;;;1.80;;
36205;SDS011;22242;48.796;9.930;2023-05-07T04:56:16;3.63;;;1.60;;
36205;SDS011;22242;48.796;9.930;2023-05-07T04:58:45;1.50;;;1.40;;
36205;SDS011;22242;48.796;9.930;2023-05-07T05:01:13;2.67;;;1.83;;
36205;SDS011;22242;48.796;9.930;2023-05-07T05:03:42;2.65;;;1.95;;
36205;SDS011;22242;48.796;9.930;2023-05-07T05:06:10;3.13;;;1.90;;
36205;SDS011;22242;48.796;9.930;2023-05-07T05:08:37;4.80;;;1.63;;
36205;SDS011;22242;48.796;9.930;2023-05-07T05:11:05;3.95;;;1.80;;
36205;SDS011;22242;48.796;9.930;2023-05-07T05:13:34;1.63;;;1.52;;
36205;SDS011;22242;48.796;9.930;2023-05-07T05:18:34;1.70;;;1.52;;
36205;SDS011;22242;48.796;9.930;2023-05-07T05:21:03;3.60;;;2.03;;
36205;SDS011;22242;48.796;9.930;2023-05-07T05:23:31;4.53;;;1.70;;
36205;SDS011;22242;48.796;9.930;2023-05-07T05:25:58;5.22;;;1.75;;
36205;SDS011;22242;48.796;9.930;2023-05-07T05:28:29;3.60;;;1.55;;
36205;SDS011;22242;48.796;9.930;2023-05-07T05:30:56;1.92;;;1.30;;
36205;SDS011;22242;48.796;9.930;2023-05-07T05:33:25;1.88;;;1.50;;
36205;SDS011;22242;48.796;9.930;2023-05-07T05:35:54;2.88;;;1.60;;
36205;SDS011;22242;48.796;9.930;2023-05-07T05:38:22;2.40;;;1.73;;
36205;SDS011;22242;48.796;9.930;2023-05-07T05:40:50;1.95;;;1.38;;
36205;SDS011;22242;48.796;9.930;2023-05-07T05:43:17;1.80;;;1.70;;
36205;SDS011;22242;48.796;9.930;2023-05-07T05:45:44;2.58;;;2.00;;
36205;SDS011;22242;48.796;9.930;2023-05-07T05:48:11;2.13;;;1.58;;
36205;SDS011;22242;48.796;9.930;2023-05-07T05:50:56;2.15;;;1.73;;
36205;SDS011;22242;48.796;9.930;2023-05-07T05:53:25;2.15;;;1.95;;
36205;SDS011;22242;48.796;9.930;2023-05-07T05:55:53;3.83;;;1.90;;
36205;SDS011;22242;48.796;9.930;2023-05-07T05:58:20;1.95;;;1.73;;
36205;SDS011;22242;48.796;9.930;2023-05-07T06:00:53;2.88;;;1.92;;
36205;SDS011;22242;48.796;9.930;2023-05-07T06:03:23;1.92;;;1.83;;
36205;SDS011;22242;48.796;9.930;2023-05-07T06:05:50;1.60;;;1.38;;
36205;SDS011;22242;48.796;9.930;2023-05-07T06:08:20;2.70;;;1.70;;
36205;SDS011;22242;48.796;9.930;2023-05-07T06:10:48;1.63;;;1.52;;
36205;SDS011;22242;48.796;9.930;2023-05-07T06:13:15;2.30;;;1.50;;
36205;SDS011;22242;48.796;9.930;2023-05-07T06:15:43;1.73;;;1.52;;
36205;SDS011;22242;48.796;9.930;2023-05-07T06:18:12;2.17;;;1.55;;
36205;SDS011;22242;48.796;9.930;2023-05-07T06:20:39;1.65;;;1.40;;
36205;SDS011;22242;48.796;9.930;2023-05-07T06:23:13;2.20;;;1.57;;
36205;SDS011;22242;48.796;9.930;2023-05-07T06:25:40;1.58;;;1.30;;
36205;SDS011;22242;48.796;9.930;2023-05-07T06:28:09;2.90;;;1.20;;
36205;SDS011;22242;48.796;9.930;2023-05-07T06:30:39;1.58;;;1.20;;
36205;SDS011;22242;48.796;9.930;2023-05-07T06:33:06;1.63;;;1.13;;
36205;SDS011;22242;48.796;9.930;2023-05-07T06:35:33;2.78;;;1.20;;
36205;SDS011;22242;48.796;9.930;2023-05-07T06:38:01;2.22;;;1.38;;
36205;SDS011;22242;48.796;9.930;2023-05-07T06:40:29;2.03;;;1.30;;
36205;SDS011;22242;48.796;9.930;2023-05-07T06:42:58;1.67;;;1.10;;
36205;SDS011;22242;48.796;9.930;2023-05-07T06:45:46;2.00;;;1.30;;
36205;SDS011;22242;48.796;9.930;2023-05-07T06:48:13;1.58;;;1.05;;
36205;SDS011;22242;48.796;9.930;2023-05-07T06:50:51;1.85;;;1.38;;
36205;SDS011;22242;48.796;9.930;2023-05-07T06:53:20;1.30;;;0.90;;
36205;SDS011;22242;48.796;9.930;2023-05-07T06:55:48;1.30;;;1.00;;
36205;SDS011;22242;48.796;9.930;2023-05-07T06:58:18;2.60;;;0.75;;
36205;SDS011;22242;48.796;9.930;2023-05-07T07:00:48;1.42;;;0.88;;
36205;SDS011;22242;48.796;9.930;2023-05-07T07:03:15;1.48;;;0.93;;
36205;SDS011;22242;48.796;9.930;2023-05-07T07:05:43;1.30;;;1.13;;
36205;SDS011;22242;48.796;9.930;2023-05-07T07:08:10;1.30;;;1.17;;
36205;SDS011;22242;48.796;9.930;2023-05-07T07:10:38;1.25;;;1.10;;
36205;SDS011;22242;48.796;9.930;2023-05-07T07:13:06;1.77;;;1.25;;
36205;SDS011;22242;48.796;9.930;2023-05-07T07:15:33;1.45;;;0.90;;
36205;SDS011;22242;48.796;9.930;2023-05-07T07:18:01;1.20;;;1.10;;
36205;SDS011;22242;48.796;9.930;2023-05-07T07:20:29;1.85;;;1.00;;
36205;SDS011;22242;48.796;9.930;2023-05-07T07:22:56;2.78;;;1.30;;
36205;SDS011;22242;48.796;9.930;2023-05-07T07:25:23;0.93;;;0.93;;
36205;SDS011;22242;48.796;9.930;2023-05-07T07:27:51;1.23;;;1.13;;
36205;SDS011;22242;48.796;9.930;2023-05-07T07:30:19;1.95;;;1.27;;
36205;SDS011;22242;48.796;9.930;2023-05-07T07:32:48;1.73;;;0.90;;
36205;SDS011;22242;48.796;9.930;2023-05-07T07:35:16;2.03;;;1.35;;
36205;SDS011;22242;48.796;9.930;2023-05-07T07:37:44;1.23;;;1.00;;
36205;SDS011;22242;48.796;9.930;2023-05-07T07:40:13;1.70;;;1.10;;
36205;SDS011;22242;48.796;9.930;2023-05-07T07:42:41;2.85;;;1.38;;
36205;SDS011;22242;48.796;9.930;2023-05-07T07:45:09;2.13;;;1.10;;
36205;SDS011;22242;48.796;9.930;2023-05-07T07:47:41;1.77;;;1.15;;
36205;SDS011;22242;48.796;9.930;2023-05-07T07:50:08;2.22;;;1.40;;
36205;SDS011;22242;48.796;9.930;2023-05-07T07:52:37;1.73;;;1.00;;
36205;SDS011;22242;48.796;9.930;2023-05-07T07:55:06;3.20;;;1.45;;
36205;SDS011;22242;48.796;9.930;2023-05-07T07:57:34;2.25;;;1.73;;
36205;SDS011;22242;48.796;9.930;2023-05-07T08:00:02;1.60;;;1.30;;
36205;SDS011;22242;48.796;9.930;2023-05-07T08:02:41;1.30;;;1.20;;
36205;SDS011;22242;48.796;9.930;2023-05-07T08:05:12;2.97;;;1.33;;
36205;SDS011;22242;48.796;9.930;2023-05-07T08:07:43;2.15;;;1.30;;
36205;SDS011;22242;48.796;9.930;2023-05-07T08:10:12;2.08;;;1.40;;
36205;SDS011;22242;48.796;9.930;2023-05-07T08:12:48;2.00;;;1.10;;
36205;SDS011;22242;48.796;9.930;2023-05-07T08:15:15;2.58;;;1.30;;
36205;SDS011;22242;48.796;9.930;2023-05-07T08:17:44;1.15;;;1.05;;
36205;SDS011;22242;48.796;9.930;2023-05-07T08:20:11;2.65;;;1.40;;
36205;SDS011;22242;48.796;9.930;2023-05-07T08:22:38;1.98;;;1.20;;
36205;SDS011;22242;48.796;9.930;2023-05-07T08:25:08;2.20;;;1.40;;
36205;SDS011;22242;48.796;9.930;2023-05-07T08:27:37;2.97;;;1.60;;
36205;SDS011;22242;48.796;9.930;2023-05-07T08:30:04;3.28;;;1.30;;
36205;SDS011;22242;48.796;9.930;2023-05-07T08:32:32;1.10;;;0.98;;
36205;SDS011;22242;48.796;9.930;2023-05-07T08:34:59;1.98;;;1.77;;
36205;SDS011;22242;48.796;9.930;2023-05-07T08:37:26;2.22;;;1.45;;
36205;SDS011;22242;48.796;9.930;2023-05-07T08:39:54;1.83;;;1.60;;
36205;SDS011;22242;48.796;9.930;2023-05-07T08:42:26;3.40;;;1.40;;
36205;SDS011;22242;48.796;9.930;2023-05-07T08:44:55;2.08;;;1.30;;
36205;SDS011;22242;48.796;9.930;2023-05-07T08:47:26;1.20;;;1.10;;
36205;SDS011;22242;48.796;9.930;2023-05-07T08:50:00;1.00;;;0.95;;
36205;SDS011;22242;48.796;9.930;2023-05-07T08:52:28;1.63;;;0.80;;
36205;SDS011;22242;48.796;9.930;2023-05-07T08:54:56;1.92;;;1.05;;
36205;SDS011;22242;48.796;9.930;2023-05-07T08:57:24;1.65;;;0.95;;
36205;SDS011;22242;48.796;9.930;2023-05-07T08:59:53;3.28;;;1.00;;
36205;SDS011;22242;48.796;9.930;2023-05-07T09:02:21;3.47;;;1.00;;
36205;SDS011;22242;48.796;9.930;2023-05-07T09:04:48;1.38;;;1.00;;
36205;SDS011;22242;48.796;9.930;2023-05-07T09:07:16;1.33;;;1.00;;
36205;SDS011;22242;48.796;9.930;2023-05-07T09:09:44;1.38;;;0.82;;
36205;SDS011;22242;48.796;9.930;2023-05-07T09:12:12;1.00;;;0.90;;
36205;SDS011;22242;48.796;9.930;2023-05-07T09:14:40;1.20;;;1.00;;
36205;SDS011;22242;48.796;9.930;2023-05-07T09:17:08;1.15;;;0.90;;
36205;SDS011;22242;48.796;9.930;2023-05-07T09:19:35;1.98;;;1.10;;
36205;SDS011;22242;48.796;9.930;2023-05-07T09:22:05;1.80;;;1.00;;
36205;SDS011;22242;48.796;9.930;2023-05-07T09:24:47;1.33;;;1.10;;
36205;SDS011;22242;48.796;9.930;2023-05-07T09:27:17;1.27;;;0.95;;
36205;SDS011;22242;48.796;9.930;2023-05-07T09:29:44;3.22;;;1.25;;
36205;SDS011;22242;48.796;9.930;2023-05-07T09:32:15;0.90;;;0.90;;
36205;SDS011;22242;48.796;9.930;2023-05-07T09:34:42;1.35;;;1.08;;
36205;SDS011;22242;48.796;9.930;2023-05-07T09:37:12;2.58;;;0.93;;
36205;SDS011;22242;48.796;9.930;2023-05-07T09:39:40;1.67;;;0.80;;
36205;SDS011;22242;48.796;9.930;2023-05-07T09:42:08;0.98;;;0.90;;
36205;SDS011;22242;48.796;9.930;2023-05-07T09:44:37;1.42;;;0.85;;
36205;SDS011;22242;48.796;9.930;2023-05-07T09:47:09;1.35;;;0.80;;
36205;SDS011;22242;48.796;9.930;2023-05-07T09:49:44;2.38;;;1.15;;
36205;SDS011;22242;48.796;9.930;2023-05-07T09:52:18;2.67;;;0.98;;
36205;SDS011;22242;48.796;9.930;2023-05-07T09:54:50;2.65;;;0.90;;
36205;SDS011;22242;48.796;9.930;2023-05-07T09:57:23;2.25;;;0.80;;
36205;SDS011;22242;48.796;9.930;2023-05-07T09:59:57;1.20;;;0.90;;
36205;SDS011;22242;48.796;9.930;2023-05-07T10:02:29;1.50;;;0.60;;
36205;SDS011;22242;48.796;9.930;2023-05-07T10:04:59;0.93;;;0.70;;
36205;SDS011;22242;48.796;9.930;2023-05-07T10:07:30;2.00;;;0.90;;
36205;SDS011;22242;48.796;9.930;2023-05-07T10:10:04;1.15;;;1.02;;
36205;SDS011;22242;48.796;9.930;2023-05-07T10:12:37;3.08;;;1.05;;
36205;SDS011;22242;48.796;9.930;2023-05-07T10:15:12;1.15;;;1.00;;
36205;SDS011;22242;48.796;9.930;2023-05-07T10:17:43;1.48;;;0.90;;
36205;SDS011;22242;48.796;9.930;2023-05-07T10:20:13;2.38;;;1.20;;
36205;SDS011;22242;48.796;9.930;2023-05-07T10:22:43;1.25;;;0.90;;
36205;SDS011;22242;48.796;9.930;2023-05-07T10:25:14;1.70;;;1.00;;
36205;SDS011;22242;48.796;9.930;2023-05-07T10:27:45;2.33;;;1.20;;
36205;SDS011;22242;48.796;9.930;2023-05-07T10:30:17;2.50;;;0.93;;
36205;SDS011;22242;48.796;9.930;2023-05-07T10:32:53;1.60;;;1.15;;
36205;SDS011;22242;48.796;9.930;2023-05-07T10:35:30;1.65;;;0.73;;
36205;SDS011;22242;48.796;9.930;2023-05-07T10:38:03;3.38;;;1.23;;
36205;SDS011;22242;48.796;9.930;2023-05-07T10:40:32;1.15;;;0.80;;
36205;SDS011;22242;48.796;9.930;2023-05-07T10:43:02;1.45;;;1.17;;
36205;SDS011;22242;48.796;9.930;2023-05-07T10:45:36;1.50;;;1.40;;
36205;SDS011;22242;48.796;9.930;2023-05-07T10:48:09;2.75;;;1.10;;
36205;SDS011;22242;48.796;9.930;2023-05-07T10:50:39;3.95;;;0.90;;
36205;SDS011;22242;48.796;9.930;2023-05-07T10:53:23;4.97;;;1.10;;
36205;SDS011;22242;48.796;9.930;2023-05-07T11:02:15;2.33;;;1.33;;
36205;SDS011;22242;48.796;9.930;2023-05-07T11:04:57;1.13;;;1.00;;
36205;SDS011;22242;48.796;9.930;2023-05-07T11:08:07;1.58;;;1.00;;
36205;SDS011;22242;48.796;9.930;2023-05-07T11:10:52;0.75;;;0.75;;
36205;SDS011;22242;48.796;9.930;2023-05-07T11:13:43;1.10;;;1.00;;
36205;SDS011;22242;48.796;9.930;2023-05-07T11:16:30;2.97;;;1.10;;
36205;SDS011;22242;48.796;9.930;2023-05-07T11:19:08;1.38;;;1.05;;
36205;SDS011;22242;48.796;9.930;2023-05-07T11:21:42;1.10;;;1.00;;
36205;SDS011;22242;48.796;9.930;2023-05-07T11:24:18;1.23;;;1.02;;
36205;SDS011;22242;48.796;9.930;2023-05-07T11:27:00;1.25;;;0.90;;
36205;SDS011;22242;48.796;9.930;2023-05-07T11:29:29;1.48;;;1.27;;
36205;SDS011;22242;48.796;9.930;2023-05-07T11:32:10;1.40;;;1.30;;
36205;SDS011;22242;48.796;9.930;2023-05-07T11:34:45;2.33;;;1.20;;
36205;SDS011;22242;48.796;9.930;2023-05-07T11:37:16;1.60;;;1.20;;
36205;SDS011;22242;48.796;9.930;2023-05-07T11:39:56;2.40;;;1.30;;
36205;SDS011;22242;48.796;9.930;2023-05-07T11:42:31;1.50;;;1.25;;
36205;SDS011;22242;48.796;9.930;2023-05-07T11:45:00;4.07;;;1.33;;
36205;SDS011;22242;48.796;9.930;2023-05-07T11:47:29;2.33;;;1.15;;
36205;SDS011;22242;48.796;9.930;2023-05-07T11:49:57;2.80;;;1.10;;
36205;SDS011;22242;48.796;9.930;2023-05-07T11:52:29;2.17;;;1.33;;
36205;SDS011;22242;48.796;9.930;2023-05-07T11:54:58;3.08;;;1.60;;
36205;SDS011;22242;48.796;9.930;2023-05-07T11:57:26;3.13;;;1.40;;
36205;SDS011;22242;48.796;9.930;2023-05-07T11:59:54;1.20;;;1.10;;
36205;SDS011;22242;48.796;9.930;2023-05-07T12:02:21;1.27;;;1.10;;
36205;SDS011;22242;48.796;9.930;2023-05-07T12:04:50;3.92;;;1.58;;
36205;SDS011;22242;48.796;9.930;2023-05-07T12:07:17;5.18;;;1.20;;
36205;SDS011;22242;48.796;9.930;2023-05-07T12:09:45;1.20;;;1.10;;
36205;SDS011;22242;48.796;9.930;2023-05-07T12:12:14;2.25;;;1.17;;
36205;SDS011;22242;48.796;9.930;2023-05-07T12:14:43;1.77;;;1.33;;
36205;SDS011;22242;48.796;9.930;2023-05-07T12:17:12;1.10;;;1.00;;
36205;SDS011;22242;48.796;9.930;2023-05-07T12:19:41;3.88;;;1.20;;
36205;SDS011;22242;48.796;9.930;2023-05-07T12:22:09;2.88;;;1.23;;
36205;SDS011;22242;48.796;9.930;2023-05-07T12:24:43;3.45;;;1.38;;
36205;SDS011;22242;48.796;9.930;2023-05-07T12:27:11;2.83;;;1.40;;
36205;SDS011;22242;48.796;9.930;2023-05-07T12:29:39;1.48;;;1.10;;
36205;SDS011;22242;48.796;9.930;2023-05-07T12:32:12;2.60;;;1.42;;
36205;SDS011;22242;48.796;9.930;2023-05-07T12:34:40;2.10;;;1.17;;
36205;SDS011;22242;48.796;9.930;2023-05-07T12:37:07;2.70;;;1.13;;
36205;SDS011;22242;48.796;9.930;2023-05-07T12:39:34;3.15;;;1.05;;
36205;SDS011;22242;48.796;9.930;2023-05-07T12:42:01;1.38;;;1.10;;
36205;SDS011;22242;48.796;9.930;2023-05-07T12:44:30;1.75;;;1.10;;
36205;SDS011;22242;48.796;9.930;2023-05-07T12:47:02;1.77;;;1.00;;
36205;SDS011;22242;48.796;9.930;2023-05-07T12:49:29;2.78;;;1.40;;
36205;SDS011;22242;48.796;9.930;2023-05-07T12:51:56;1.10;;;0.80;;
36205;SDS011;22242;48.796;9.930;2023-05-07T12:54:28;1.23;;;1.10;;
36205;SDS011;22242;48.796;9.930;2023-05-07T12:57:00;2.50;;;1.05;;
36205;SDS011;22242;48.796;9.930;2023-05-07T12:59:31;1.15;;;0.98;;
36205;SDS011;22242;48.796;9.930;2023-05-07T13:01:59;3.58;;;1.20;;
36205;SDS011;22242;48.796;9.930;2023-05-07T13:04:27;3.20;;;1.20;;
36205;SDS011;22242;48.796;9.930;2023-05-07T13:06:55;1.60;;;1.10;;
36205;SDS011;22242;48.796;9.930;2023-05-07T13:09:22;1.13;;;0.93;;
36205;SDS011;22242;48.796;9.930;2023-05-07T13:11:49;2.00;;;1.10;;
36205;SDS011;22242;48.796;9.930;2023-05-07T13:14:16;1.55;;;1.13;;
36205;SDS011;22242;48.796;9.930;2023-05-07T13:16:45;1.30;;;1.20;;
36205;SDS011;22242;48.796;9.930;2023-05-07T13:19:12;2.35;;;1.10;;
36205;SDS011;22242;48.796;9.930;2023-05-07T13:21:41;1.00;;;0.90;;
36205;SDS011;22242;48.796;9.930;2023-05-07T13:24:08;1.63;;;0.98;;
36205;SDS011;22242;48.796;9.930;2023-05-07T13:26:35;1.05;;;0.95;;
36205;SDS011;22242;48.796;9.930;2023-05-07T13:29:02;1.90;;;1.00;;
36205;SDS011;22242;48.796;9.930;2023-05-07T13:31:30;1.65;;;1.10;;
36205;SDS011;22242;48.796;9.930;2023-05-07T13:33:57;3.20;;;1.30;;
36205;SDS011;22242;48.796;9.930;2023-05-07T13:36:25;1.20;;;0.90;;
36205;SDS011;22242;48.796;9.930;2023-05-07T13:38:53;4.70;;;1.20;;
36205;SDS011;22242;48.796;9.930;2023-05-07T13:41:20;2.38;;;1.13;;
36205;SDS011;22242;48.796;9.930;2023-05-07T13:43:47;2.97;;;1.10;;
36205;SDS011;22242;48.796;9.930;2023-05-07T13:46:14;1.50;;;1.40;;
36205;SDS011;22242;48.796;9.930;2023-05-07T13:48:41;1.42;;;1.02;;
36205;SDS011;22242;48.796;9.930;2023-05-07T13:51:08;2.55;;;1.23;;
36205;SDS011;22242;48.796;9.930;2023-05-07T13:53:36;1.35;;;1.00;;
36205;SDS011;22242;48.796;9.930;2023-05-07T13:56:04;2.13;;;1.20;;
36205;SDS011;22242;48.796;9.930;2023-05-07T13:58:31;2.28;;;1.42;;
36205;SDS011;22242;48.796;9.930;2023-05-07T14:00:58;2.55;;;1.20;;
36205;SDS011;22242;48.796;9.930;2023-05-07T14:03:25;2.50;;;1.38;;
36205;SDS011;22242;48.796;9.930;2023-05-07T14:05:52;2.58;;;1.35;;
36205;SDS011;22242;48.796;9.930;2023-05-07T14:08:19;1.17;;;1.00;;
36205;SDS011;22242;48.796;9.930;2023-05-07T14:10:46;1.95;;;1.08;;
36205;SDS011;22242;48.796;9.930;2023-05-07T14:13:14;2.50;;;1.30;;
36205;SDS011;22242;48.796;9.930;2023-05-07T14:15:42;3.42;;;1.40;;
36205;SDS011;22242;48.796;9.930;2023-05-07T14:18:11;1.48;;;1.20;;
36205;SDS011;22242;48.796;9.930;2023-05-07T14:20:38;4.00;;;1.42;;
36205;SDS011;22242;48.796;9.930;2023-05-07T14:23:05;2.55;;;1.30;;
36205;SDS011;22242;48.796;9.930;2023-05-07T14:25:32;4.35;;;1.20;;
36205;SDS011;22242;48.796;9.930;2023-05-07T14:27:59;2.42;;;1.20;;
36205;SDS011;22242;48.796;9.930;2023-05-07T14:30:28;2.65;;;1.08;;
36205;SDS011;22242;48.796;9.930;2023-05-07T14:32:54;2.22;;;1.02;;
36205;SDS011;22242;48.796;9.930;2023-05-07T14:35:22;2.05;;;1.00;;
36205;SDS011;22242;48.796;9.930;2023-05-07T14:37:48;2.25;;;1.25;;
36205;SDS011;22242;48.796;9.930;2023-05-07T14:40:15;1.52;;;1.23;;
36205;SDS011;22242;48.796;9.930;2023-05-07T14:42:42;2.58;;;1.23;;
36205;SDS011;22242;48.796;9.930;2023-05-07T14:45:09;1.23;;;1.10;;
36205;SDS011;22242;48.796;9.930;2023-05-07T14:47:38;3.83;;;1.20;;
36205;SDS011;22242;48.796;9.930;2023-05-07T14:50:05;6.70;;;1.30;;
36205;SDS011;22242;48.796;9.930;2023-05-07T14:52:32;2.75;;;1.20;;
36205;SDS011;22242;48.796;9.930;2023-05-07T14:55:00;1.67;;;1.13;;
36205;SDS011;22242;48.796;9.930;2023-05-07T14:57:26;1.33;;;1.15;;
36205;SDS011;22242;48.796;9.930;2023-05-07T14:59:54;1.25;;;1.15;;
36205;SDS011;22242;48.796;9.930;2023-05-07T15:02:20;2.60;;;1.30;;
36205;SDS011;22242;48.796;9.930;2023-05-07T15:04:49;2.92;;;0.90;;
36205;SDS011;22242;48.796;9.930;2023-05-07T15:07:16;1.35;;;1.00;;
36205;SDS011;22242;48.796;9.930;2023-05-07T15:09:43;1.58;;;1.02;;